Guide — WDE7328 — position and weather

sailwx.info

Track history (hours):
 
Tides and Currents Weather Stations Pressure Air Temp Water Temp Dewpoint Dewpoint Depression Visibility Wind Speed Wind Dir Waves Ship Positions

Guide

Owner: Crowley Marine Services, SEATTLE, WA. More information available from US FCC via Universal Licensing System and Coast Guard Vessel Documentation Center.

Last reported at 2017-Mar-23 05:33 UTC. Time now 2017-Mar-23 06:17 UTC.
Position N 47°16' W 122°25'.

Length 34 m; draft 5.1 m.

Type: Tug. MMSI: 366759530.

Date/timePositionNaut miles runAvg speedWind from/ knotsBaromVisibWave heightAir tempDewpointWater temp
2017-Mar-23 05:33N 47°16' W 122°25'0 0.0
2017-Mar-23 04:33N 47°16' W 122°25'0 0.0
2017-Mar-23 03:33N 47°16' W 122°25'1 1.1
2017-Mar-23 02:33N 47°16' W 122°23'0 0.0
2017-Mar-23 01:24N 47°16' W 122°23'0 0.0
2017-Mar-23 00:33N 47°16' W 122°23'3 3.0
2017-Mar-22 23:33N 47°18' W 122°27'4 3.5
2017-Mar-22 22:30N 47°15' W 122°23'2 1.6
2017-Mar-22 21:33N 47°16' W 122°24'2 1.5
2017-Mar-22 20:26N 47°18' W 122°26'0 0.0
2017-Mar-22 19:33N 47°18' W 122°26'0 0.0
2017-Mar-22 18:33N 47°18' W 122°26'0 0.0
2017-Mar-22 17:32N 47°18' W 122°26'0 0.0
2017-Mar-22 16:31N 47°18' W 122°26'0 0.0
2017-Mar-22 15:23N 47°18' W 122°26'0 0.0
2017-Mar-22 14:33N 47°18' W 122°26'1 1.2
2017-Mar-22 13:33N 47°17' W 122°25'1 0.5
2017-Mar-22 12:33N 47°16' W 122°25'2 1.6
2017-Mar-22 11:33N 47°18' W 122°26'1 1.2
2017-Mar-22 10:32N 47°17' W 122°25'1 1.4
2017-Mar-22 09:33N 47°16' W 122°23'2 1.9
2017-Mar-22 08:33N 47°15' W 122°26'0 0.0
2017-Mar-22 07:33N 47°15' W 122°26'0 0.0
2017-Mar-22 06:33N 47°15' W 122°26'0 0.0
2017-Mar-22 05:33N 47°15' W 122°26'0 0.0
2017-Mar-22 04:33N 47°15' W 122°26'0 0.0
2017-Mar-22 03:33N 47°15' W 122°26'0 0.0
2017-Mar-22 02:14N 47°15' W 122°26'0 0.0
2017-Mar-22 01:33N 47°15' W 122°26'0 0.0
2017-Mar-22 00:11N 47°15' W 122°26'0 0.0
2017-Mar-21 23:32N 47°15' W 122°26'0 0.0
2017-Mar-21 22:33N 47°15' W 122°26'2 1.6
2017-Mar-21 21:33N 47°17' W 122°25'1 1.0
2017-Mar-21 20:29N 47°18' W 122°26'0 0.2
2017-Mar-21 19:33N 47°17' W 122°26'3 2.7
2017-Mar-21 18:33N 47°15' W 122°23'2 2.1
2017-Mar-21 17:33N 47°15' W 122°26'0 0.0
2017-Mar-21 16:33N 47°15' W 122°26'0 0.0
2017-Mar-21 15:32N 47°15' W 122°26'0 0.0
2017-Mar-21 14:33N 47°15' W 122°26'0 0.0
2017-Mar-21 13:33N 47°15' W 122°26'0 0.0
2017-Mar-21 12:33N 47°15' W 122°26'0 0.0
2017-Mar-21 11:33N 47°15' W 122°26'0 0.0
2017-Mar-21 10:32N 47°15' W 122°26'0 0.0
2017-Mar-21 09:29N 47°15' W 122°26'0 0.0
2017-Mar-21 08:30N 47°15' W 122°26'0 0.0
2017-Mar-21 07:32N 47°15' W 122°26'2 2.1
2017-Mar-21 06:31N 47°16' W 122°23'0 0.1
2017-Mar-21 05:33N 47°16' W 122°23'0 0.1
2017-Mar-21 04:33N 47°16' W 122°23'0 0.0
2017-Mar-21 03:33N 47°16' W 122°23'4 3.6
2017-Mar-21 02:34N 47°18' W 122°27'7 6.7
2017-Mar-21 01:33N 47°24' W 122°22'2 1.6
2017-Mar-21 00:33N 47°26' W 122°23'8 8.3
2017-Mar-20 23:33N 47°18' W 122°27'3 3.4
2017-Mar-20 22:33N 47°15' W 122°23'3 0.7
2017-Mar-20 18:07N 47°18' W 122°26'0 0.0
2017-Mar-20 17:22N 47°18' W 122°26'2 1.2
2017-Mar-20 15:24N 47°16' W 122°23'2 2.9
2017-Mar-20 14:33N 47°17' W 122°26'2 2.1
2017-Mar-20 13:33N 47°16' W 122°24'1 1.0
2017-Mar-20 12:33N 47°16' W 122°25'1 1.1
2017-Mar-20 11:33N 47°17' W 122°26'3 2.6
2017-Mar-20 10:33N 47°16' W 122°23'0 0.3
2017-Mar-20 09:33N 47°16' W 122°23'2 2.5
2017-Mar-20 08:33N 47°18' W 122°26'0 0.0
2017-Mar-20 07:33N 47°18' W 122°26'0 0.0
2017-Mar-20 06:33N 47°18' W 122°26'0 0.0
2017-Mar-20 05:31N 47°18' W 122°26'0 0.0
2017-Mar-20 04:33N 47°18' W 122°26'0 0.0
2017-Mar-20 03:33N 47°18' W 122°26'0 0.0
2017-Mar-20 02:27N 47°18' W 122°26'0 0.0
2017-Mar-20 01:33N 47°18' W 122°26'0 0.0
2017-Mar-20 00:33N 47°18' W 122°26'0 0.0
2017-Mar-19 23:29N 47°18' W 122°26'0 0.0
2017-Mar-19 22:33N 47°18' W 122°26'0 0.0
2017-Mar-19 21:29N 47°18' W 122°26'0 0.0
2017-Mar-19 20:33N 47°18' W 122°26'0 0.0
2017-Mar-19 19:21N 47°18' W 122°26'0 0.0
2017-Mar-19 18:33N 47°18' W 122°26'0 0.0
2017-Mar-19 17:33N 47°18' W 122°26'0 0.0
2017-Mar-19 16:33N 47°18' W 122°26'0 0.0
2017-Mar-19 15:31N 47°18' W 122°26'0 0.0
2017-Mar-19 14:33N 47°18' W 122°26'0 0.0
2017-Mar-19 13:33N 47°18' W 122°26'0 0.0
2017-Mar-19 12:33N 47°18' W 122°26'2 1.6
2017-Mar-19 11:33N 47°16' W 122°24'1 0.9
2017-Mar-19 10:33N 47°16' W 122°23'2 1.9
2017-Mar-19 09:33N 47°15' W 122°26'0 0.0
2017-Mar-19 08:33N 47°15' W 122°26'0 0.0
2017-Mar-19 07:33N 47°15' W 122°26'0 0.0
2017-Mar-19 06:33N 47°15' W 122°26'0 0.0
2017-Mar-19 05:27N 47°15' W 122°26'0 0.0
2017-Mar-19 04:32N 47°15' W 122°26'0 0.0
2017-Mar-19 03:33N 47°15' W 122°26'0 0.0
2017-Mar-19 02:33N 47°15' W 122°26'2 2.0
2017-Mar-19 01:33N 47°16' W 122°23'2 1.6
2017-Mar-19 00:33N 47°17' W 122°25'0 0.1
2017-Mar-18 23:33N 47°17' W 122°25'0 0.2
2017-Mar-18 22:33N 47°17' W 122°25'1 1.0
2017-Mar-18 21:33N 47°17' W 122°26'1 1.3
2017-Mar-18 20:33N 47°15' W 122°26'0 0.0
2017-Mar-18 19:33N 47°15' W 122°26'0 0.0
2017-Mar-18 18:33N 47°15' W 122°26'0 0.0
2017-Mar-18 17:33N 47°15' W 122°26'0 0.0
2017-Mar-18 16:33N 47°15' W 122°26'0 0.0
2017-Mar-18 15:33N 47°15' W 122°26'0 0.0
2017-Mar-18 14:32N 47°15' W 122°26'0 0.0
2017-Mar-18 13:27N 47°15' W 122°26'2 2.4
2017-Mar-18 12:32N 47°15' W 122°23'0 0.1
2017-Mar-18 11:32N 47°15' W 122°23'2 1.6
2017-Mar-18 10:32N 47°16' W 122°25'0 0.5
2017-Mar-18 09:31N 47°16' W 122°24'2 1.9
2017-Mar-18 08:32N 47°18' W 122°26'6 5.9
2017-Mar-18 07:33N 47°23' W 122°23'7 7.3
2017-Mar-18 06:33N 47°30' W 122°26'6 6.4
2017-Mar-18 05:34N 47°36' W 122°23'3 3.5
2017-Mar-18 04:33N 47°33' W 122°21'1 1.3
2017-Mar-18 03:33N 47°34' W 122°21'1 1.5
2017-Mar-18 02:33N 47°36' W 122°21'1 0.5
2017-Mar-18 01:33N 47°35' W 122°21'3 2.9
2017-Mar-18 00:33N 47°35' W 122°25'8 7.7
2017-Mar-17 23:33N 47°27' W 122°23'6 6.5
2017-Mar-17 22:33N 47°21' W 122°24'4 3.8
2017-Mar-17 21:27N 47°17' W 122°24'1 1.6
2017-Mar-17 20:33N 47°16' W 122°26'1 0.5
2017-Mar-17 19:33N 47°15' W 122°26'0 0.0
2017-Mar-17 18:32N 47°15' W 122°26'0 0.0
2017-Mar-17 17:33N 47°15' W 122°26'0 0.0
2017-Mar-17 16:33N 47°15' W 122°26'2 1.9
2017-Mar-17 15:33N 47°17' W 122°26'1 0.6
2017-Mar-17 14:33N 47°18' W 122°26'3 3.0
2017-Mar-17 13:33N 47°15' W 122°23'1 0.9
2017-Mar-17 12:31N 47°16' W 122°24'1 0.9
2017-Mar-17 11:33N 47°17' W 122°25'2 1.5
2017-Mar-17 10:33N 47°15' W 122°26'0 0.1
2017-Mar-17 09:33N 47°15' W 122°26'0 0.0
2017-Mar-17 08:33N 47°15' W 122°26'0 0.0
2017-Mar-17 07:33N 47°15' W 122°26'0 0.0
2017-Mar-17 06:33N 47°15' W 122°26'0 0.0
2017-Mar-17 05:33N 47°15' W 122°26'0 0.0
2017-Mar-17 04:32N 47°15' W 122°26'0 0.0
2017-Mar-17 03:33N 47°15' W 122°26'0 0.0
2017-Mar-17 02:33N 47°15' W 122°26'0 0.0
2017-Mar-17 01:33N 47°15' W 122°26'2 1.8
2017-Mar-17 00:33N 47°16' W 122°24'2 2.3
2017-Mar-16 23:33N 47°17' W 122°26'2 1.6
2017-Mar-16 22:33N 47°16' W 122°26'1 0.2
2017-Mar-16 19:28N 47°15' W 122°26'0 0.0
2017-Mar-16 18:32N 47°15' W 122°26'0 0.0
2017-Mar-16 17:33N 47°15' W 122°26'0 0.0
2017-Mar-16 16:33N 47°15' W 122°26'0 0.0
2017-Mar-16 15:31N 47°15' W 122°26'0 0.0
2017-Mar-16 14:33N 47°15' W 122°26'2 2.0
2017-Mar-16 13:34N 47°16' W 122°23'1 1.3
2017-Mar-16 12:32N 47°17' W 122°25'1 0.5
2017-Mar-16 11:28N 47°16' W 122°24'1 0.6
2017-Mar-16 10:32N 47°17' W 122°25'1 1.2
2017-Mar-16 09:32N 47°16' W 122°23'1 1.4
2017-Mar-16 08:32N 47°16' W 122°25'1 1.1
2017-Mar-16 07:32N 47°16' W 122°24'1 0.5
2017-Mar-16 06:33N 47°16' W 122°23'2 1.5
2017-Mar-16 05:33N 47°17' W 122°25'2 1.5
2017-Mar-16 04:32N 47°16' W 122°23'2 2.1
2017-Mar-16 03:33N 47°15' W 122°26'0 0.0
2017-Mar-16 02:33N 47°15' W 122°26'0 0.0
2017-Mar-16 01:33N 47°15' W 122°26'2 1.6
2017-Mar-16 00:30N 47°16' W 122°24'1 1.0
2017-Mar-15 23:33N 47°16' W 122°23'3 2.6
2017-Mar-15 22:33N 47°17' W 122°26'1 0.6
2017-Mar-15 20:11N 47°15' W 122°26'0 0.0
2017-Mar-15 19:30N 47°15' W 122°26'1 1.4
2017-Mar-15 18:33N 47°17' W 122°26'1 1.1
2017-Mar-15 17:30N 47°16' W 122°24'2 1.9
2017-Mar-15 16:33N 47°18' W 122°26'0 0.0
2017-Mar-15 15:31N 47°18' W 122°26'0 0.0
2017-Mar-15 14:33N 47°18' W 122°26'3 2.6
2017-Mar-15 13:33N 47°16' W 122°23'1 1.0
2017-Mar-15 12:33N 47°16' W 122°24'1 1.1
2017-Mar-15 11:33N 47°17' W 122°26'2 1.8
2017-Mar-15 10:28N 47°15' W 122°26'0 0.0
2017-Mar-15 09:29N 47°15' W 122°26'0 0.0
2017-Mar-15 08:07N 47°15' W 122°26'0 0.0
2017-Mar-15 07:33N 47°15' W 122°26'0 0.0
2017-Mar-15 06:33N 47°15' W 122°26'0 0.0
2017-Mar-15 05:33N 47°15' W 122°26'0 0.0
2017-Mar-15 04:33N 47°15' W 122°26'0 0.0
2017-Mar-15 03:33N 47°15' W 122°26'0 0.0
2017-Mar-15 02:33N 47°15' W 122°26'1 1.1
2017-Mar-15 01:33N 47°16' W 122°25'0 0.5
2017-Mar-15 00:29N 47°17' W 122°25'2 1.9
2017-Mar-14 23:31N 47°15' W 122°23'0 0.4
2017-Mar-14 22:33N 47°16' W 122°23'2 1.9
2017-Mar-14 21:33N 47°15' W 122°26'0 0.0
2017-Mar-14 20:33N 47°15' W 122°26'0 0.0
2017-Mar-14 19:30N 47°15' W 122°26'0 0.0
2017-Mar-14 18:33N 47°15' W 122°26'0 0.0
2017-Mar-14 17:33N 47°15' W 122°26'0 0.0
2017-Mar-14 16:33N 47°15' W 122°26'0 0.0
2017-Mar-14 15:33N 47°15' W 122°26'0 0.0
2017-Mar-14 14:33N 47°15' W 122°26'0 0.0
2017-Mar-14 13:33N 47°15' W 122°26'1 1.1
2017-Mar-14 12:33N 47°16' W 122°25'1 1.3
2017-Mar-14 11:33N 47°17' W 122°26'2 1.9
2017-Mar-14 10:33N 47°15' W 122°26'0 0.0
2017-Mar-14 09:33N 47°15' W 122°26'0 0.0
2017-Mar-14 08:33N 47°15' W 122°26'0 0.0
2017-Mar-14 05:14N 47°15' W 122°26'0 0.0
2017-Mar-14 04:32N 47°15' W 122°26'0 0.0
2017-Mar-14 03:33N 47°15' W 122°26'2 2.0
2017-Mar-14 02:33N 47°16' W 122°23'2 2.2
2017-Mar-14 01:33N 47°17' W 122°26'2 2.2
2017-Mar-14 00:33N 47°16' W 122°23'2 2.0
2017-Mar-13 23:33N 47°15' W 122°26'0 0.0
2017-Mar-13 22:33N 47°15' W 122°26'0 0.0
2017-Mar-13 21:33N 47°15' W 122°26'0 0.0
2017-Mar-13 20:14N 47°15' W 122°26'0 0.0
2017-Mar-13 18:33N 47°15' W 122°26'0 0.0
2017-Mar-13 17:33N 47°15' W 122°26'0 0.0
2017-Mar-13 16:33N 47°15' W 122°26'0 0.0
2017-Mar-13 15:33N 47°15' W 122°26'0 0.0
2017-Mar-13 14:33N 47°15' W 122°26'2 1.5
2017-Mar-13 13:33N 47°16' W 122°24'1 0.8
2017-Mar-13 12:33N 47°16' W 122°23'2 2.2
2017-Mar-13 11:33N 47°17' W 122°26'1 1.4
2017-Mar-13 10:33N 47°15' W 122°26'0 0.0
2017-Mar-13 09:33N 47°15' W 122°26'0 0.0
2017-Mar-13 08:33N 47°15' W 122°26'0 0.0
2017-Mar-13 07:30N 47°15' W 122°26'0 0.0
2017-Mar-13 06:31N 47°15' W 122°26'  
Track history (hours):
 
Tides and Currents Weather Stations Pressure Air Temp Water Temp Dewpoint Dewpoint Depression Visibility Wind Speed Wind Dir Waves Ship Positions

Guide

Owner: Crowley Marine Services, SEATTLE, WA. More information available from US FCC via Universal Licensing System and Coast Guard Vessel Documentation Center.

Last reported at 2017-Mar-23 05:33 UTC. Time now 2017-Mar-23 06:17 UTC.
Position N 47°16' W 122°25'.

Length 34 m; draft 5.1 m.

Type: Tug. MMSI: 366759530.

Date/timePositionNaut miles runAvg speedWind from/ knotsBaromVisibWave heightAir tempDewpointWater temp
2017-Mar-23 05:33N 47°16' W 122°25'0 0.0
2017-Mar-23 04:33N 47°16' W 122°25'0 0.0
2017-Mar-23 03:33N 47°16' W 122°25'1 1.1
2017-Mar-23 02:33N 47°16' W 122°23'0 0.0
2017-Mar-23 01:24N 47°16' W 122°23'0 0.0
2017-Mar-23 00:33N 47°16' W 122°23'3 3.0
2017-Mar-22 23:33N 47°18' W 122°27'4 3.5
2017-Mar-22 22:30N 47°15' W 122°23'2 1.6
2017-Mar-22 21:33N 47°16' W 122°24'2 1.5
2017-Mar-22 20:26N 47°18' W 122°26'0 0.0
2017-Mar-22 19:33N 47°18' W 122°26'0 0.0
2017-Mar-22 18:33N 47°18' W 122°26'0 0.0
2017-Mar-22 17:32N 47°18' W 122°26'0 0.0
2017-Mar-22 16:31N 47°18' W 122°26'0 0.0
2017-Mar-22 15:23N 47°18' W 122°26'0 0.0
2017-Mar-22 14:33N 47°18' W 122°26'1 1.2
2017-Mar-22 13:33N 47°17' W 122°25'1 0.5
2017-Mar-22 12:33N 47°16' W 122°25'2 1.6
2017-Mar-22 11:33N 47°18' W 122°26'1 1.2
2017-Mar-22 10:32N 47°17' W 122°25'1 1.4
2017-Mar-22 09:33N 47°16' W 122°23'2 1.9
2017-Mar-22 08:33N 47°15' W 122°26'0 0.0
2017-Mar-22 07:33N 47°15' W 122°26'0 0.0
2017-Mar-22 06:33N 47°15' W 122°26'0 0.0
2017-Mar-22 05:33N 47°15' W 122°26'0 0.0
2017-Mar-22 04:33N 47°15' W 122°26'0 0.0
2017-Mar-22 03:33N 47°15' W 122°26'0 0.0
2017-Mar-22 02:14N 47°15' W 122°26'0 0.0
2017-Mar-22 01:33N 47°15' W 122°26'0 0.0
2017-Mar-22 00:11N 47°15' W 122°26'0 0.0
2017-Mar-21 23:32N 47°15' W 122°26'0 0.0
2017-Mar-21 22:33N 47°15' W 122°26'2 1.6
2017-Mar-21 21:33N 47°17' W 122°25'1 1.0
2017-Mar-21 20:29N 47°18' W 122°26'0 0.2
2017-Mar-21 19:33N 47°17' W 122°26'3 2.7
2017-Mar-21 18:33N 47°15' W 122°23'2 2.1
2017-Mar-21 17:33N 47°15' W 122°26'0 0.0
2017-Mar-21 16:33N 47°15' W 122°26'0 0.0
2017-Mar-21 15:32N 47°15' W 122°26'0 0.0
2017-Mar-21 14:33N 47°15' W 122°26'0 0.0
2017-Mar-21 13:33N 47°15' W 122°26'0 0.0
2017-Mar-21 12:33N 47°15' W 122°26'0 0.0
2017-Mar-21 11:33N 47°15' W 122°26'0 0.0
2017-Mar-21 10:32N 47°15' W 122°26'0 0.0
2017-Mar-21 09:29N 47°15' W 122°26'0 0.0
2017-Mar-21 08:30N 47°15' W 122°26'0 0.0
2017-Mar-21 07:32N 47°15' W 122°26'2 2.1
2017-Mar-21 06:31N 47°16' W 122°23'0 0.1
2017-Mar-21 05:33N 47°16' W 122°23'0 0.1
2017-Mar-21 04:33N 47°16' W 122°23'0 0.0
2017-Mar-21 03:33N 47°16' W 122°23'4 3.6
2017-Mar-21 02:34N 47°18' W 122°27'7 6.7
2017-Mar-21 01:33N 47°24' W 122°22'2 1.6
2017-Mar-21 00:33N 47°26' W 122°23'8 8.3
2017-Mar-20 23:33N 47°18' W 122°27'3 3.4
2017-Mar-20 22:33N 47°15' W 122°23'3 0.7
2017-Mar-20 18:07N 47°18' W 122°26'0 0.0
2017-Mar-20 17:22N 47°18' W 122°26'2 1.2
2017-Mar-20 15:24N 47°16' W 122°23'2 2.9
2017-Mar-20 14:33N 47°17' W 122°26'2 2.1
2017-Mar-20 13:33N 47°16' W 122°24'1 1.0
2017-Mar-20 12:33N 47°16' W 122°25'1 1.1
2017-Mar-20 11:33N 47°17' W 122°26'3 2.6
2017-Mar-20 10:33N 47°16' W 122°23'0 0.3
2017-Mar-20 09:33N 47°16' W 122°23'2 2.5
2017-Mar-20 08:33N 47°18' W 122°26'0 0.0
2017-Mar-20 07:33N 47°18' W 122°26'0 0.0
2017-Mar-20 06:33N 47°18' W 122°26'0 0.0
2017-Mar-20 05:31N 47°18' W 122°26'0 0.0
2017-Mar-20 04:33N 47°18' W 122°26'0 0.0
2017-Mar-20 03:33N 47°18' W 122°26'0 0.0
2017-Mar-20 02:27N 47°18' W 122°26'0 0.0
2017-Mar-20 01:33N 47°18' W 122°26'0 0.0
2017-Mar-20 00:33N 47°18' W 122°26'0 0.0
2017-Mar-19 23:29N 47°18' W 122°26'0 0.0
2017-Mar-19 22:33N 47°18' W 122°26'0 0.0
2017-Mar-19 21:29N 47°18' W 122°26'0 0.0
2017-Mar-19 20:33N 47°18' W 122°26'0 0.0
2017-Mar-19 19:21N 47°18' W 122°26'0 0.0
2017-Mar-19 18:33N 47°18' W 122°26'0 0.0
2017-Mar-19 17:33N 47°18' W 122°26'0 0.0
2017-Mar-19 16:33N 47°18' W 122°26'0 0.0
2017-Mar-19 15:31N 47°18' W 122°26'0 0.0
2017-Mar-19 14:33N 47°18' W 122°26'0 0.0
2017-Mar-19 13:33N 47°18' W 122°26'0 0.0
2017-Mar-19 12:33N 47°18' W 122°26'2 1.6
2017-Mar-19 11:33N 47°16' W 122°24'1 0.9
2017-Mar-19 10:33N 47°16' W 122°23'2 1.9
2017-Mar-19 09:33N 47°15' W 122°26'0 0.0
2017-Mar-19 08:33N 47°15' W 122°26'0 0.0
2017-Mar-19 07:33N 47°15' W 122°26'0 0.0
2017-Mar-19 06:33N 47°15' W 122°26'0 0.0
2017-Mar-19 05:27N 47°15' W 122°26'0 0.0
2017-Mar-19 04:32N 47°15' W 122°26'0 0.0
2017-Mar-19 03:33N 47°15' W 122°26'0 0.0
2017-Mar-19 02:33N 47°15' W 122°26'2 2.0
2017-Mar-19 01:33N 47°16' W 122°23'2 1.6
2017-Mar-19 00:33N 47°17' W 122°25'0 0.1
2017-Mar-18 23:33N 47°17' W 122°25'0 0.2
2017-Mar-18 22:33N 47°17' W 122°25'1 1.0
2017-Mar-18 21:33N 47°17' W 122°26'1 1.3
2017-Mar-18 20:33N 47°15' W 122°26'0 0.0
2017-Mar-18 19:33N 47°15' W 122°26'0 0.0
2017-Mar-18 18:33N 47°15' W 122°26'0 0.0
2017-Mar-18 17:33N 47°15' W 122°26'0 0.0
2017-Mar-18 16:33N 47°15' W 122°26'0 0.0
2017-Mar-18 15:33N 47°15' W 122°26'0 0.0
2017-Mar-18 14:32N 47°15' W 122°26'0 0.0
2017-Mar-18 13:27N 47°15' W 122°26'2 2.4
2017-Mar-18 12:32N 47°15' W 122°23'0 0.1
2017-Mar-18 11:32N 47°15' W 122°23'2 1.6
2017-Mar-18 10:32N 47°16' W 122°25'0 0.5
2017-Mar-18 09:31N 47°16' W 122°24'2 1.9
2017-Mar-18 08:32N 47°18' W 122°26'6 5.9
2017-Mar-18 07:33N 47°23' W 122°23'7 7.3
2017-Mar-18 06:33N 47°30' W 122°26'6 6.4
2017-Mar-18 05:34N 47°36' W 122°23'3 3.5
2017-Mar-18 04:33N 47°33' W 122°21'1 1.3
2017-Mar-18 03:33N 47°34' W 122°21'1 1.5
2017-Mar-18 02:33N 47°36' W 122°21'1 0.5
2017-Mar-18 01:33N 47°35' W 122°21'3 2.9
2017-Mar-18 00:33N 47°35' W 122°25'8 7.7
2017-Mar-17 23:33N 47°27' W 122°23'6 6.5
2017-Mar-17 22:33N 47°21' W 122°24'4 3.8
2017-Mar-17 21:27N 47°17' W 122°24'1 1.6
2017-Mar-17 20:33N 47°16' W 122°26'1 0.5
2017-Mar-17 19:33N 47°15' W 122°26'0 0.0
2017-Mar-17 18:32N 47°15' W 122°26'0 0.0
2017-Mar-17 17:33N 47°15' W 122°26'0 0.0
2017-Mar-17 16:33N 47°15' W 122°26'2 1.9
2017-Mar-17 15:33N 47°17' W 122°26'1 0.6
2017-Mar-17 14:33N 47°18' W 122°26'3 3.0
2017-Mar-17 13:33N 47°15' W 122°23'1 0.9
2017-Mar-17 12:31N 47°16' W 122°24'1 0.9
2017-Mar-17 11:33N 47°17' W 122°25'2 1.5
2017-Mar-17 10:33N 47°15' W 122°26'0 0.1
2017-Mar-17 09:33N 47°15' W 122°26'0 0.0
2017-Mar-17 08:33N 47°15' W 122°26'0 0.0
2017-Mar-17 07:33N 47°15' W 122°26'0 0.0
2017-Mar-17 06:33N 47°15' W 122°26'0 0.0
2017-Mar-17 05:33N 47°15' W 122°26'0 0.0
2017-Mar-17 04:32N 47°15' W 122°26'0 0.0
2017-Mar-17 03:33N 47°15' W 122°26'0 0.0
2017-Mar-17 02:33N 47°15' W 122°26'0 0.0
2017-Mar-17 01:33N 47°15' W 122°26'2 1.8
2017-Mar-17 00:33N 47°16' W 122°24'2 2.3
2017-Mar-16 23:33N 47°17' W 122°26'2 1.6
2017-Mar-16 22:33N 47°16' W 122°26'1 0.2
2017-Mar-16 19:28N 47°15' W 122°26'0 0.0
2017-Mar-16 18:32N 47°15' W 122°26'0 0.0
2017-Mar-16 17:33N 47°15' W 122°26'0 0.0
2017-Mar-16 16:33N 47°15' W 122°26'0 0.0
2017-Mar-16 15:31N 47°15' W 122°26'0 0.0
2017-Mar-16 14:33N 47°15' W 122°26'2 2.0
2017-Mar-16 13:34N 47°16' W 122°23'1 1.3
2017-Mar-16 12:32N 47°17' W 122°25'1 0.5
2017-Mar-16 11:28N 47°16' W 122°24'1 0.6
2017-Mar-16 10:32N 47°17' W 122°25'1 1.2
2017-Mar-16 09:32N 47°16' W 122°23'1 1.4
2017-Mar-16 08:32N 47°16' W 122°25'1 1.1
2017-Mar-16 07:32N 47°16' W 122°24'1 0.5
2017-Mar-16 06:33N 47°16' W 122°23'2 1.5
2017-Mar-16 05:33N 47°17' W 122°25'2 1.5
2017-Mar-16 04:32N 47°16' W 122°23'2 2.1
2017-Mar-16 03:33N 47°15' W 122°26'0 0.0
2017-Mar-16 02:33N 47°15' W 122°26'0 0.0
2017-Mar-16 01:33N 47°15' W 122°26'2 1.6
2017-Mar-16 00:30N 47°16' W 122°24'1 1.0
2017-Mar-15 23:33N 47°16' W 122°23'3 2.6
2017-Mar-15 22:33N 47°17' W 122°26'1 0.6
2017-Mar-15 20:11N 47°15' W 122°26'0 0.0
2017-Mar-15 19:30N 47°15' W 122°26'1 1.4
2017-Mar-15 18:33N 47°17' W 122°26'1 1.1
2017-Mar-15 17:30N 47°16' W 122°24'2 1.9
2017-Mar-15 16:33N 47°18' W 122°26'0 0.0
2017-Mar-15 15:31N 47°18' W 122°26'0 0.0
2017-Mar-15 14:33N 47°18' W 122°26'3 2.6
2017-Mar-15 13:33N 47°16' W 122°23'1 1.0
2017-Mar-15 12:33N 47°16' W 122°24'1 1.1
2017-Mar-15 11:33N 47°17' W 122°26'2 1.8
2017-Mar-15 10:28N 47°15' W 122°26'0 0.0
2017-Mar-15 09:29N 47°15' W 122°26'0 0.0
2017-Mar-15 08:07N 47°15' W 122°26'0 0.0
2017-Mar-15 07:33N 47°15' W 122°26'0 0.0
2017-Mar-15 06:33N 47°15' W 122°26'0 0.0
2017-Mar-15 05:33N 47°15' W 122°26'0 0.0
2017-Mar-15 04:33N 47°15' W 122°26'0 0.0
2017-Mar-15 03:33N 47°15' W 122°26'0 0.0
2017-Mar-15 02:33N 47°15' W 122°26'1 1.1
2017-Mar-15 01:33N 47°16' W 122°25'0 0.5
2017-Mar-15 00:29N 47°17' W 122°25'2 1.9
2017-Mar-14 23:31N 47°15' W 122°23'0 0.4
2017-Mar-14 22:33N 47°16' W 122°23'2 1.9
2017-Mar-14 21:33N 47°15' W 122°26'0 0.0
2017-Mar-14 20:33N 47°15' W 122°26'0 0.0
2017-Mar-14 19:30N 47°15' W 122°26'0 0.0
2017-Mar-14 18:33N 47°15' W 122°26'0 0.0
2017-Mar-14 17:33N 47°15' W 122°26'0 0.0
2017-Mar-14 16:33N 47°15' W 122°26'0 0.0
2017-Mar-14 15:33N 47°15' W 122°26'0 0.0
2017-Mar-14 14:33N 47°15' W 122°26'0 0.0
2017-Mar-14 13:33N 47°15' W 122°26'1 1.1
2017-Mar-14 12:33N 47°16' W 122°25'1 1.3
2017-Mar-14 11:33N 47°17' W 122°26'2 1.9
2017-Mar-14 10:33N 47°15' W 122°26'0 0.0
2017-Mar-14 09:33N 47°15' W 122°26'0 0.0
2017-Mar-14 08:33N 47°15' W 122°26'0 0.0
2017-Mar-14 05:14N 47°15' W 122°26'0 0.0
2017-Mar-14 04:32N 47°15' W 122°26'0 0.0
2017-Mar-14 03:33N 47°15' W 122°26'2 2.0
2017-Mar-14 02:33N 47°16' W 122°23'2 2.2
2017-Mar-14 01:33N 47°17' W 122°26'2 2.2
2017-Mar-14 00:33N 47°16' W 122°23'2 2.0
2017-Mar-13 23:33N 47°15' W 122°26'0 0.0
2017-Mar-13 22:33N 47°15' W 122°26'0 0.0
2017-Mar-13 21:33N 47°15' W 122°26'0 0.0
2017-Mar-13 20:14N 47°15' W 122°26'0 0.0
2017-Mar-13 18:33N 47°15' W 122°26'0 0.0
2017-Mar-13 17:33N 47°15' W 122°26'0 0.0
2017-Mar-13 16:33N 47°15' W 122°26'0 0.0
2017-Mar-13 15:33N 47°15' W 122°26'0 0.0
2017-Mar-13 14:33N 47°15' W 122°26'2 1.5
2017-Mar-13 13:33N 47°16' W 122°24'1 0.8
2017-Mar-13 12:33N 47°16' W 122°23'2 2.2
2017-Mar-13 11:33N 47°17' W 122°26'1 1.4
2017-Mar-13 10:33N 47°15' W 122°26'0 0.0
2017-Mar-13 09:33N 47°15' W 122°26'0 0.0
2017-Mar-13 08:33N 47°15' W 122°26'0 0.0
2017-Mar-13 07:30N 47°15' W 122°26'0 0.0
2017-Mar-13 06:31N 47°15' W 122°26'  

Dump ship's entire track history